sensor_id;sensor_type;location;lat;lon;timestamp;P1;durP1;ratioP1;P2;durP2;ratioP2
14732;SDS011;7457;50.960;6.830;2023-05-10T00:00:20;11.93;;;9.55;;
14732;SDS011;7457;50.960;6.830;2023-05-10T00:02:47;13.02;;;9.60;;
14732;SDS011;7457;50.960;6.830;2023-05-10T00:05:13;14.77;;;11.18;;
14732;SDS011;7457;50.960;6.830;2023-05-10T00:07:39;17.25;;;11.23;;
14732;SDS011;7457;50.960;6.830;2023-05-10T00:10:04;12.77;;;10.48;;
14732;SDS011;7457;50.960;6.830;2023-05-10T00:12:30;14.23;;;10.75;;
14732;SDS011;7457;50.960;6.830;2023-05-10T00:14:56;15.27;;;11.07;;
14732;SDS011;7457;50.960;6.830;2023-05-10T00:17:21;18.92;;;12.90;;
14732;SDS011;7457;50.960;6.830;2023-05-10T00:19:47;15.48;;;11.85;;
14732;SDS011;7457;50.960;6.830;2023-05-10T00:22:13;18.27;;;12.80;;
14732;SDS011;7457;50.960;6.830;2023-05-10T00:24:38;17.48;;;12.73;;
14732;SDS011;7457;50.960;6.830;2023-05-10T00:27:04;19.48;;;13.43;;
14732;SDS011;7457;50.960;6.830;2023-05-10T00:29:30;18.63;;;12.32;;
14732;SDS011;7457;50.960;6.830;2023-05-10T00:31:56;22.23;;;14.35;;
14732;SDS011;7457;50.960;6.830;2023-05-10T00:34:22;20.30;;;14.02;;
14732;SDS011;7457;50.960;6.830;2023-05-10T00:36:48;19.42;;;12.77;;
14732;SDS011;7457;50.960;6.830;2023-05-10T00:39:13;19.77;;;13.48;;
14732;SDS011;7457;50.960;6.830;2023-05-10T00:41:39;21.63;;;13.57;;
14732;SDS011;7457;50.960;6.830;2023-05-10T00:44:05;22.52;;;14.52;;
14732;SDS011;7457;50.960;6.830;2023-05-10T00:46:30;20.02;;;14.88;;
14732;SDS011;7457;50.960;6.830;2023-05-10T00:48:57;21.88;;;13.82;;
14732;SDS011;7457;50.960;6.830;2023-05-10T00:51:22;21.80;;;13.68;;
14732;SDS011;7457;50.960;6.830;2023-05-10T00:53:49;18.27;;;13.18;;
14732;SDS011;7457;50.960;6.830;2023-05-10T00:56:16;21.45;;;13.90;;
14732;SDS011;7457;50.960;6.830;2023-05-10T00:58:41;20.95;;;14.35;;
14732;SDS011;7457;50.960;6.830;2023-05-10T01:01:07;21.70;;;14.02;;
14732;SDS011;7457;50.960;6.830;2023-05-10T01:03:34;19.63;;;14.02;;
14732;SDS011;7457;50.960;6.830;2023-05-10T01:06:00;20.75;;;13.82;;
14732;SDS011;7457;50.960;6.830;2023-05-10T01:15:10;18.08;;;13.23;;
14732;SDS011;7457;50.960;6.830;2023-05-10T01:17:37;18.08;;;11.95;;
14732;SDS011;7457;50.960;6.830;2023-05-10T01:20:05;15.88;;;11.45;;
14732;SDS011;7457;50.960;6.830;2023-05-10T01:34:07;16.92;;;12.30;;
14732;SDS011;7457;50.960;6.830;2023-05-10T01:36:45;17.10;;;11.18;;
14732;SDS011;7457;50.960;6.830;2023-05-10T01:41:52;22.60;;;12.45;;
14732;SDS011;7457;50.960;6.830;2023-05-10T01:46:58;19.30;;;11.68;;
14732;SDS011;7457;50.960;6.830;2023-05-10T01:49:32;22.20;;;12.70;;
14732;SDS011;7457;50.960;6.830;2023-05-10T01:52:10;19.35;;;13.18;;
14732;SDS011;7457;50.960;6.830;2023-05-10T01:54:40;19.00;;;13.00;;
14732;SDS011;7457;50.960;6.830;2023-05-10T01:57:09;19.67;;;12.90;;
14732;SDS011;7457;50.960;6.830;2023-05-10T01:59:39;20.67;;;12.82;;
14732;SDS011;7457;50.960;6.830;2023-05-10T02:02:08;19.92;;;13.18;;
14732;SDS011;7457;50.960;6.830;2023-05-10T02:04:37;22.63;;;13.45;;
14732;SDS011;7457;50.960;6.830;2023-05-10T02:07:05;26.67;;;14.40;;
14732;SDS011;7457;50.960;6.830;2023-05-10T02:09:33;25.95;;;14.73;;
14732;SDS011;7457;50.960;6.830;2023-05-10T02:12:01;23.13;;;14.20;;
14732;SDS011;7457;50.960;6.830;2023-05-10T02:14:30;23.58;;;14.43;;
14732;SDS011;7457;50.960;6.830;2023-05-10T02:16:59;23.60;;;13.68;;
14732;SDS011;7457;50.960;6.830;2023-05-10T02:19:26;18.73;;;12.20;;
14732;SDS011;7457;50.960;6.830;2023-05-10T02:21:53;19.67;;;11.18;;
14732;SDS011;7457;50.960;6.830;2023-05-10T02:24:21;13.02;;;9.05;;
14732;SDS011;7457;50.960;6.830;2023-05-10T02:26:49;12.07;;;8.23;;
14732;SDS011;7457;50.960;6.830;2023-05-10T02:29:16;11.80;;;7.60;;
14732;SDS011;7457;50.960;6.830;2023-05-10T02:31:43;10.38;;;7.53;;
14732;SDS011;7457;50.960;6.830;2023-05-10T02:34:09;9.25;;;7.75;;
14732;SDS011;7457;50.960;6.830;2023-05-10T02:36:36;10.93;;;8.10;;
14732;SDS011;7457;50.960;6.830;2023-05-10T02:39:03;11.65;;;7.90;;
14732;SDS011;7457;50.960;6.830;2023-05-10T02:41:34;10.20;;;7.50;;
14732;SDS011;7457;50.960;6.830;2023-05-10T02:44:00;10.98;;;6.88;;
14732;SDS011;7457;50.960;6.830;2023-05-10T02:46:27;10.90;;;6.40;;
14732;SDS011;7457;50.960;6.830;2023-05-10T02:48:53;8.30;;;6.78;;
14732;SDS011;7457;50.960;6.830;2023-05-10T02:51:19;11.18;;;6.40;;
14732;SDS011;7457;50.960;6.830;2023-05-10T02:53:49;9.40;;;7.35;;
14732;SDS011;7457;50.960;6.830;2023-05-10T02:56:24;10.57;;;6.55;;
14732;SDS011;7457;50.960;6.830;2023-05-10T02:58:54;11.93;;;6.80;;
14732;SDS011;7457;50.960;6.830;2023-05-10T03:01:20;11.30;;;7.30;;
14732;SDS011;7457;50.960;6.830;2023-05-10T03:03:46;11.15;;;6.80;;
14732;SDS011;7457;50.960;6.830;2023-05-10T03:06:12;10.65;;;7.47;;
14732;SDS011;7457;50.960;6.830;2023-05-10T03:08:37;13.18;;;7.82;;
14732;SDS011;7457;50.960;6.830;2023-05-10T03:13:56;15.02;;;8.15;;
14732;SDS011;7457;50.960;6.830;2023-05-10T03:16:46;14.23;;;8.60;;
14732;SDS011;7457;50.960;6.830;2023-05-10T03:22:08;17.45;;;11.05;;
14732;SDS011;7457;50.960;6.830;2023-05-10T03:24:36;21.17;;;12.10;;
14732;SDS011;7457;50.960;6.830;2023-05-10T03:27:03;19.70;;;12.38;;
14732;SDS011;7457;50.960;6.830;2023-05-10T03:29:31;21.45;;;14.65;;
14732;SDS011;7457;50.960;6.830;2023-05-10T03:32:00;20.85;;;15.30;;
14732;SDS011;7457;50.960;6.830;2023-05-10T03:34:26;24.25;;;15.50;;
14732;SDS011;7457;50.960;6.830;2023-05-10T03:36:55;22.40;;;13.77;;
14732;SDS011;7457;50.960;6.830;2023-05-10T03:39:20;20.83;;;13.98;;
14732;SDS011;7457;50.960;6.830;2023-05-10T03:41:46;19.60;;;14.07;;
14732;SDS011;7457;50.960;6.830;2023-05-10T03:44:12;18.73;;;14.00;;
14732;SDS011;7457;50.960;6.830;2023-05-10T03:46:37;19.20;;;14.13;;
14732;SDS011;7457;50.960;6.830;2023-05-10T03:49:03;21.73;;;13.95;;
14732;SDS011;7457;50.960;6.830;2023-05-10T03:51:28;20.95;;;13.95;;
14732;SDS011;7457;50.960;6.830;2023-05-10T03:53:56;22.52;;;14.23;;
14732;SDS011;7457;50.960;6.830;2023-05-10T03:56:21;20.85;;;12.85;;
14732;SDS011;7457;50.960;6.830;2023-05-10T03:58:47;20.13;;;13.23;;
14732;SDS011;7457;50.960;6.830;2023-05-10T04:01:13;22.45;;;13.52;;
14732;SDS011;7457;50.960;6.830;2023-05-10T04:03:38;17.10;;;12.77;;
14732;SDS011;7457;50.960;6.830;2023-05-10T04:06:04;20.77;;;13.30;;
14732;SDS011;7457;50.960;6.830;2023-05-10T04:08:30;18.23;;;13.60;;
14732;SDS011;7457;50.960;6.830;2023-05-10T04:11:09;17.92;;;13.57;;
14732;SDS011;7457;50.960;6.830;2023-05-10T04:13:36;19.92;;;14.00;;
14732;SDS011;7457;50.960;6.830;2023-05-10T04:16:02;24.65;;;15.05;;
14732;SDS011;7457;50.960;6.830;2023-05-10T04:18:28;26.38;;;15.13;;
14732;SDS011;7457;50.960;6.830;2023-05-10T04:20:53;21.80;;;14.70;;
14732;SDS011;7457;50.960;6.830;2023-05-10T04:23:19;24.27;;;15.15;;
14732;SDS011;7457;50.960;6.830;2023-05-10T04:25:44;26.48;;;15.55;;
14732;SDS011;7457;50.960;6.830;2023-05-10T04:28:10;25.48;;;17.35;;
14732;SDS011;7457;50.960;6.830;2023-05-10T04:30:36;23.77;;;16.50;;
14732;SDS011;7457;50.960;6.830;2023-05-10T04:33:01;23.17;;;15.35;;
14732;SDS011;7457;50.960;6.830;2023-05-10T04:35:28;26.60;;;16.88;;
14732;SDS011;7457;50.960;6.830;2023-05-10T04:37:53;22.20;;;16.42;;
14732;SDS011;7457;50.960;6.830;2023-05-10T04:40:19;27.92;;;17.67;;
14732;SDS011;7457;50.960;6.830;2023-05-10T04:42:45;25.27;;;17.08;;
14732;SDS011;7457;50.960;6.830;2023-05-10T04:45:11;24.30;;;17.42;;
14732;SDS011;7457;50.960;6.830;2023-05-10T04:47:37;27.95;;;17.08;;
14732;SDS011;7457;50.960;6.830;2023-05-10T04:50:03;25.10;;;17.33;;
14732;SDS011;7457;50.960;6.830;2023-05-10T04:52:29;22.13;;;16.27;;
14732;SDS011;7457;50.960;6.830;2023-05-10T04:54:55;21.98;;;15.15;;
14732;SDS011;7457;50.960;6.830;2023-05-10T04:57:21;20.90;;;14.45;;
14732;SDS011;7457;50.960;6.830;2023-05-10T04:59:46;23.95;;;14.93;;
14732;SDS011;7457;50.960;6.830;2023-05-10T05:02:13;20.15;;;14.60;;
14732;SDS011;7457;50.960;6.830;2023-05-10T05:04:38;20.65;;;14.65;;
14732;SDS011;7457;50.960;6.830;2023-05-10T05:07:04;20.63;;;13.95;;
14732;SDS011;7457;50.960;6.830;2023-05-10T05:09:29;20.80;;;14.27;;
14732;SDS011;7457;50.960;6.830;2023-05-10T05:11:57;20.02;;;13.75;;
14732;SDS011;7457;50.960;6.830;2023-05-10T05:14:22;21.27;;;13.30;;
14732;SDS011;7457;50.960;6.830;2023-05-10T05:16:50;23.60;;;13.75;;
14732;SDS011;7457;50.960;6.830;2023-05-10T05:19:16;19.33;;;12.43;;
14732;SDS011;7457;50.960;6.830;2023-05-10T05:21:42;19.15;;;12.82;;
14732;SDS011;7457;50.960;6.830;2023-05-10T05:24:08;23.02;;;12.90;;
14732;SDS011;7457;50.960;6.830;2023-05-10T05:26:35;21.15;;;13.02;;
14732;SDS011;7457;50.960;6.830;2023-05-10T05:29:01;19.27;;;12.38;;
14732;SDS011;7457;50.960;6.830;2023-05-10T05:31:27;21.40;;;12.13;;
14732;SDS011;7457;50.960;6.830;2023-05-10T05:33:53;22.10;;;13.45;;
14732;SDS011;7457;50.960;6.830;2023-05-10T05:36:19;18.45;;;12.38;;
14732;SDS011;7457;50.960;6.830;2023-05-10T05:38:45;20.48;;;12.35;;
14732;SDS011;7457;50.960;6.830;2023-05-10T05:41:10;18.98;;;12.15;;
14732;SDS011;7457;50.960;6.830;2023-05-10T05:43:36;20.15;;;12.25;;
14732;SDS011;7457;50.960;6.830;2023-05-10T05:46:01;18.83;;;11.40;;
14732;SDS011;7457;50.960;6.830;2023-05-10T05:48:29;19.25;;;11.70;;
14732;SDS011;7457;50.960;6.830;2023-05-10T05:50:55;17.25;;;11.15;;
14732;SDS011;7457;50.960;6.830;2023-05-10T05:53:24;17.05;;;10.30;;
14732;SDS011;7457;50.960;6.830;2023-05-10T05:58:19;17.00;;;11.35;;
14732;SDS011;7457;50.960;6.830;2023-05-10T06:00:45;18.02;;;11.05;;
14732;SDS011;7457;50.960;6.830;2023-05-10T06:03:11;21.08;;;10.40;;
14732;SDS011;7457;50.960;6.830;2023-05-10T06:05:36;15.70;;;10.40;;
14732;SDS011;7457;50.960;6.830;2023-05-10T06:08:02;17.73;;;10.75;;
14732;SDS011;7457;50.960;6.830;2023-05-10T06:10:28;18.77;;;11.27;;
14732;SDS011;7457;50.960;6.830;2023-05-10T06:12:53;21.50;;;11.57;;
14732;SDS011;7457;50.960;6.830;2023-05-10T06:15:19;23.20;;;11.73;;
14732;SDS011;7457;50.960;6.830;2023-05-10T06:17:45;19.58;;;12.18;;
14732;SDS011;7457;50.960;6.830;2023-05-10T06:20:12;19.90;;;11.60;;
14732;SDS011;7457;50.960;6.830;2023-05-10T06:22:38;19.25;;;11.75;;
14732;SDS011;7457;50.960;6.830;2023-05-10T06:25:03;20.25;;;13.38;;
14732;SDS011;7457;50.960;6.830;2023-05-10T06:27:29;19.73;;;11.45;;
14732;SDS011;7457;50.960;6.830;2023-05-10T06:29:55;20.73;;;12.07;;
14732;SDS011;7457;50.960;6.830;2023-05-10T06:32:21;21.02;;;12.95;;
14732;SDS011;7457;50.960;6.830;2023-05-10T06:34:47;22.00;;;13.48;;
14732;SDS011;7457;50.960;6.830;2023-05-10T06:37:12;22.77;;;13.23;;
14732;SDS011;7457;50.960;6.830;2023-05-10T06:39:38;24.38;;;12.77;;
14732;SDS011;7457;50.960;6.830;2023-05-10T06:42:04;27.45;;;16.08;;
14732;SDS011;7457;50.960;6.830;2023-05-10T06:44:30;22.52;;;13.60;;
14732;SDS011;7457;50.960;6.830;2023-05-10T06:46:55;26.05;;;15.57;;
14732;SDS011;7457;50.960;6.830;2023-05-10T06:49:21;23.60;;;14.43;;
14732;SDS011;7457;50.960;6.830;2023-05-10T06:51:47;23.70;;;14.13;;
14732;SDS011;7457;50.960;6.830;2023-05-10T06:54:13;29.15;;;15.32;;
14732;SDS011;7457;50.960;6.830;2023-05-10T06:56:39;25.52;;;13.68;;
14732;SDS011;7457;50.960;6.830;2023-05-10T06:59:04;23.17;;;13.65;;
14732;SDS011;7457;50.960;6.830;2023-05-10T07:01:30;21.80;;;14.75;;
14732;SDS011;7457;50.960;6.830;2023-05-10T07:03:56;30.67;;;14.73;;
14732;SDS011;7457;50.960;6.830;2023-05-10T07:06:21;23.20;;;13.70;;
14732;SDS011;7457;50.960;6.830;2023-05-10T07:08:47;24.42;;;14.07;;
14732;SDS011;7457;50.960;6.830;2023-05-10T07:11:13;23.27;;;14.50;;
14732;SDS011;7457;50.960;6.830;2023-05-10T07:13:38;23.20;;;14.18;;
14732;SDS011;7457;50.960;6.830;2023-05-10T07:16:06;22.20;;;14.07;;
14732;SDS011;7457;50.960;6.830;2023-05-10T07:18:32;22.23;;;14.30;;
14732;SDS011;7457;50.960;6.830;2023-05-10T07:20:58;21.20;;;13.82;;
14732;SDS011;7457;50.960;6.830;2023-05-10T07:23:24;20.77;;;13.05;;
14732;SDS011;7457;50.960;6.830;2023-05-10T07:25:50;30.10;;;14.13;;
14732;SDS011;7457;50.960;6.830;2023-05-10T07:28:17;19.02;;;14.23;;
14732;SDS011;7457;50.960;6.830;2023-05-10T07:30:43;28.08;;;13.68;;
14732;SDS011;7457;50.960;6.830;2023-05-10T07:33:10;22.00;;;13.15;;
14732;SDS011;7457;50.960;6.830;2023-05-10T07:35:37;22.90;;;12.82;;
14732;SDS011;7457;50.960;6.830;2023-05-10T07:38:02;19.67;;;12.32;;
14732;SDS011;7457;50.960;6.830;2023-05-10T07:40:28;21.65;;;13.00;;
14732;SDS011;7457;50.960;6.830;2023-05-10T07:42:55;19.60;;;12.25;;
14732;SDS011;7457;50.960;6.830;2023-05-10T07:45:21;16.35;;;11.05;;
14732;SDS011;7457;50.960;6.830;2023-05-10T07:47:48;17.50;;;11.45;;
14732;SDS011;7457;50.960;6.830;2023-05-10T07:50:13;13.73;;;10.50;;
14732;SDS011;7457;50.960;6.830;2023-05-10T07:52:39;14.55;;;10.07;;
14732;SDS011;7457;50.960;6.830;2023-05-10T07:55:05;17.73;;;10.77;;
14732;SDS011;7457;50.960;6.830;2023-05-10T07:57:32;13.50;;;9.70;;
14732;SDS011;7457;50.960;6.830;2023-05-10T07:59:58;14.02;;;9.75;;
14732;SDS011;7457;50.960;6.830;2023-05-10T08:02:24;16.27;;;9.68;;
14732;SDS011;7457;50.960;6.830;2023-05-10T08:04:50;14.02;;;9.77;;
14732;SDS011;7457;50.960;6.830;2023-05-10T08:07:16;13.20;;;9.02;;
14732;SDS011;7457;50.960;6.830;2023-05-10T08:09:42;14.23;;;9.13;;
14732;SDS011;7457;50.960;6.830;2023-05-10T08:12:07;14.40;;;8.75;;
14732;SDS011;7457;50.960;6.830;2023-05-10T08:14:33;14.43;;;9.38;;
14732;SDS011;7457;50.960;6.830;2023-05-10T08:16:59;13.05;;;9.05;;
14732;SDS011;7457;50.960;6.830;2023-05-10T08:19:25;14.25;;;8.98;;
14732;SDS011;7457;50.960;6.830;2023-05-10T08:21:52;17.13;;;9.95;;
14732;SDS011;7457;50.960;6.830;2023-05-10T08:24:18;13.05;;;10.00;;
14732;SDS011;7457;50.960;6.830;2023-05-10T08:26:44;12.23;;;9.02;;
14732;SDS011;7457;50.960;6.830;2023-05-10T08:29:09;12.88;;;8.98;;
14732;SDS011;7457;50.960;6.830;2023-05-10T08:31:35;14.70;;;9.25;;
14732;SDS011;7457;50.960;6.830;2023-05-10T08:34:01;15.15;;;10.48;;
14732;SDS011;7457;50.960;6.830;2023-05-10T08:36:26;19.88;;;10.63;;
14732;SDS011;7457;50.960;6.830;2023-05-10T08:38:52;18.98;;;10.80;;
14732;SDS011;7457;50.960;6.830;2023-05-10T08:41:21;15.63;;;10.85;;
14732;SDS011;7457;50.960;6.830;2023-05-10T08:43:54;16.25;;;11.10;;
14732;SDS011;7457;50.960;6.830;2023-05-10T08:46:20;17.35;;;10.50;;
14732;SDS011;7457;50.960;6.830;2023-05-10T08:48:48;16.30;;;11.73;;
14732;SDS011;7457;50.960;6.830;2023-05-10T08:51:17;17.45;;;12.88;;
14732;SDS011;7457;50.960;6.830;2023-05-10T08:53:45;15.85;;;11.82;;
14732;SDS011;7457;50.960;6.830;2023-05-10T08:56:11;19.70;;;12.70;;
14732;SDS011;7457;50.960;6.830;2023-05-10T08:58:37;16.13;;;11.15;;
14732;SDS011;7457;50.960;6.830;2023-05-10T09:01:03;14.80;;;11.20;;
14732;SDS011;7457;50.960;6.830;2023-05-10T09:03:30;13.20;;;9.05;;
14732;SDS011;7457;50.960;6.830;2023-05-10T09:05:56;12.77;;;9.20;;
14732;SDS011;7457;50.960;6.830;2023-05-10T09:08:25;12.40;;;9.95;;
14732;SDS011;7457;50.960;6.830;2023-05-10T09:10:51;12.60;;;9.02;;
14732;SDS011;7457;50.960;6.830;2023-05-10T09:13:18;14.85;;;9.15;;
14732;SDS011;7457;50.960;6.830;2023-05-10T09:15:44;14.27;;;9.90;;
14732;SDS011;7457;50.960;6.830;2023-05-10T09:18:11;16.77;;;11.52;;
14732;SDS011;7457;50.960;6.830;2023-05-10T09:20:37;17.25;;;11.80;;
14732;SDS011;7457;50.960;6.830;2023-05-10T09:23:02;19.13;;;11.75;;
14732;SDS011;7457;50.960;6.830;2023-05-10T09:25:28;16.25;;;11.13;;
14732;SDS011;7457;50.960;6.830;2023-05-10T09:27:54;15.55;;;10.35;;
14732;SDS011;7457;50.960;6.830;2023-05-10T09:30:24;14.98;;;10.40;;
14732;SDS011;7457;50.960;6.830;2023-05-10T09:32:51;13.85;;;9.82;;
14732;SDS011;7457;50.960;6.830;2023-05-10T09:35:18;16.63;;;9.15;;
14732;SDS011;7457;50.960;6.830;2023-05-10T09:37:47;16.20;;;10.98;;
14732;SDS011;7457;50.960;6.830;2023-05-10T09:40:15;17.88;;;11.98;;
14732;SDS011;7457;50.960;6.830;2023-05-10T09:42:50;19.80;;;10.85;;
14732;SDS011;7457;50.960;6.830;2023-05-10T09:45:19;16.85;;;11.40;;
14732;SDS011;7457;50.960;6.830;2023-05-10T09:47:45;14.23;;;10.45;;
14732;SDS011;7457;50.960;6.830;2023-05-10T09:50:11;15.73;;;9.90;;
14732;SDS011;7457;50.960;6.830;2023-05-10T09:55:11;13.45;;;9.35;;
14732;SDS011;7457;50.960;6.830;2023-05-10T09:57:37;15.60;;;10.80;;
14732;SDS011;7457;50.960;6.830;2023-05-10T10:00:03;13.13;;;10.10;;
14732;SDS011;7457;50.960;6.830;2023-05-10T10:02:29;13.57;;;9.70;;
14732;SDS011;7457;50.960;6.830;2023-05-10T10:04:56;11.82;;;9.13;;
14732;SDS011;7457;50.960;6.830;2023-05-10T10:07:22;10.82;;;8.15;;
14732;SDS011;7457;50.960;6.830;2023-05-10T10:09:52;12.75;;;8.27;;
14732;SDS011;7457;50.960;6.830;2023-05-10T10:12:18;11.25;;;7.95;;
14732;SDS011;7457;50.960;6.830;2023-05-10T10:14:45;10.50;;;8.55;;
14732;SDS011;7457;50.960;6.830;2023-05-10T10:17:13;13.38;;;8.45;;
14732;SDS011;7457;50.960;6.830;2023-05-10T10:19:39;12.60;;;8.55;;
14732;SDS011;7457;50.960;6.830;2023-05-10T10:22:05;13.55;;;9.32;;
14732;SDS011;7457;50.960;6.830;2023-05-10T10:24:31;11.15;;;8.82;;
14732;SDS011;7457;50.960;6.830;2023-05-10T10:26:59;11.05;;;7.60;;
14732;SDS011;7457;50.960;6.830;2023-05-10T10:29:39;11.73;;;7.97;;
14732;SDS011;7457;50.960;6.830;2023-05-10T10:32:25;9.30;;;6.80;;
14732;SDS011;7457;50.960;6.830;2023-05-10T10:35:11;8.85;;;7.18;;
14732;SDS011;7457;50.960;6.830;2023-05-10T10:37:43;9.85;;;7.90;;
14732;SDS011;7457;50.960;6.830;2023-05-10T10:40:29;8.65;;;6.60;;
14732;SDS011;7457;50.960;6.830;2023-05-10T10:42:56;7.55;;;6.38;;
14732;SDS011;7457;50.960;6.830;2023-05-10T10:45:23;8.43;;;6.47;;
14732;SDS011;7457;50.960;6.830;2023-05-10T10:48:05;9.75;;;6.70;;
14732;SDS011;7457;50.960;6.830;2023-05-10T10:50:55;13.52;;;9.38;;
14732;SDS011;7457;50.960;6.830;2023-05-10T10:53:22;12.05;;;8.20;;
14732;SDS011;7457;50.960;6.830;2023-05-10T10:55:51;12.32;;;7.53;;
14732;SDS011;7457;50.960;6.830;2023-05-10T10:58:32;11.35;;;7.68;;
14732;SDS011;7457;50.960;6.830;2023-05-10T11:01:17;11.18;;;7.03;;
14732;SDS011;7457;50.960;6.830;2023-05-10T11:06:33;8.68;;;6.75;;
14732;SDS011;7457;50.960;6.830;2023-05-10T11:09:09;8.45;;;6.15;;
14732;SDS011;7457;50.960;6.830;2023-05-10T11:11:37;7.35;;;6.03;;
14732;SDS011;7457;50.960;6.830;2023-05-10T11:14:17;7.60;;;5.35;;
14732;SDS011;7457;50.960;6.830;2023-05-10T11:16:47;6.43;;;5.47;;
14732;SDS011;7457;50.960;6.830;2023-05-10T11:19:13;6.05;;;5.45;;
14732;SDS011;7457;50.960;6.830;2023-05-10T11:21:50;7.53;;;5.15;;
14732;SDS011;7457;50.960;6.830;2023-05-10T11:24:31;5.32;;;4.50;;
14732;SDS011;7457;50.960;6.830;2023-05-10T11:26:56;6.38;;;4.30;;
14732;SDS011;7457;50.960;6.830;2023-05-10T11:29:22;4.25;;;3.63;;
14732;SDS011;7457;50.960;6.830;2023-05-10T11:31:48;4.55;;;3.22;;
14732;SDS011;7457;50.960;6.830;2023-05-10T11:34:49;4.18;;;3.22;;
14732;SDS011;7457;50.960;6.830;2023-05-10T11:37:12;3.75;;;3.20;;
14732;SDS011;7457;50.960;6.830;2023-05-10T11:39:38;3.75;;;2.45;;
14732;SDS011;7457;50.960;6.830;2023-05-10T11:42:03;3.90;;;2.83;;
14732;SDS011;7457;50.960;6.830;2023-05-10T11:44:30;3.28;;;2.97;;
14732;SDS011;7457;50.960;6.830;2023-05-10T11:46:58;3.35;;;3.00;;
14732;SDS011;7457;50.960;6.830;2023-05-10T11:49:25;2.97;;;2.65;;
14732;SDS011;7457;50.960;6.830;2023-05-10T11:51:51;2.80;;;2.53;;
14732;SDS011;7457;50.960;6.830;2023-05-10T11:54:16;4.07;;;3.53;;
14732;SDS011;7457;50.960;6.830;2023-05-10T11:56:42;5.20;;;3.92;;
14732;SDS011;7457;50.960;6.830;2023-05-10T11:59:08;3.30;;;3.00;;
14732;SDS011;7457;50.960;6.830;2023-05-10T12:01:33;5.82;;;3.10;;
14732;SDS011;7457;50.960;6.830;2023-05-10T12:04:00;3.55;;;3.15;;
14732;SDS011;7457;50.960;6.830;2023-05-10T12:06:27;3.30;;;3.00;;
14732;SDS011;7457;50.960;6.830;2023-05-10T12:08:54;4.25;;;3.38;;
14732;SDS011;7457;50.960;6.830;2023-05-10T12:11:19;6.55;;;3.63;;
14732;SDS011;7457;50.960;6.830;2023-05-10T12:13:46;3.38;;;3.17;;
14732;SDS011;7457;50.960;6.830;2023-05-10T12:16:16;3.83;;;3.13;;
14732;SDS011;7457;50.960;6.830;2023-05-10T12:18:44;3.65;;;3.08;;
14732;SDS011;7457;50.960;6.830;2023-05-10T12:21:11;3.25;;;2.95;;
14732;SDS011;7457;50.960;6.830;2023-05-10T12:23:37;3.90;;;3.30;;
14732;SDS011;7457;50.960;6.830;2023-05-10T12:26:04;3.88;;;3.20;;
14732;SDS011;7457;50.960;6.830;2023-05-10T12:28:30;4.63;;;3.45;;
14732;SDS011;7457;50.960;6.830;2023-05-10T12:30:57;5.30;;;3.10;;
14732;SDS011;7457;50.960;6.830;2023-05-10T12:33:26;2.40;;;2.20;;
14732;SDS011;7457;50.960;6.830;2023-05-10T12:35:53;2.45;;;2.25;;
14732;SDS011;7457;50.960;6.830;2023-05-10T12:38:24;5.35;;;2.60;;
14732;SDS011;7457;50.960;6.830;2023-05-10T12:41:04;3.83;;;2.85;;
14732;SDS011;7457;50.960;6.830;2023-05-10T12:43:32;3.28;;;2.90;;
14732;SDS011;7457;50.960;6.830;2023-05-10T12:45:58;3.28;;;2.90;;
14732;SDS011;7457;50.960;6.830;2023-05-10T12:48:29;2.97;;;2.67;;
14732;SDS011;7457;50.960;6.830;2023-05-10T12:50:56;4.22;;;3.53;;
14732;SDS011;7457;50.960;6.830;2023-05-10T12:53:22;2.95;;;2.35;;
14732;SDS011;7457;50.960;6.830;2023-05-10T12:55:47;1.92;;;1.80;;
14732;SDS011;7457;50.960;6.830;2023-05-10T12:58:13;1.77;;;1.67;;
14732;SDS011;7457;50.960;6.830;2023-05-10T13:00:39;2.75;;;2.00;;
14732;SDS011;7457;50.960;6.830;2023-05-10T13:03:04;3.05;;;2.40;;
14732;SDS011;7457;50.960;6.830;2023-05-10T13:05:33;2.63;;;2.42;;
14732;SDS011;7457;50.960;6.830;2023-05-10T13:07:59;2.83;;;2.58;;
14732;SDS011;7457;50.960;6.830;2023-05-10T13:10:25;5.15;;;2.33;;
14732;SDS011;7457;50.960;6.830;2023-05-10T13:12:51;4.47;;;2.50;;
14732;SDS011;7457;50.960;6.830;2023-05-10T13:15:17;2.50;;;2.25;;
14732;SDS011;7457;50.960;6.830;2023-05-10T13:17:42;3.63;;;2.55;;
14732;SDS011;7457;50.960;6.830;2023-05-10T13:20:10;2.78;;;1.90;;
14732;SDS011;7457;50.960;6.830;2023-05-10T13:22:36;2.17;;;1.73;;
14732;SDS011;7457;50.960;6.830;2023-05-10T13:25:02;2.10;;;1.80;;
14732;SDS011;7457;50.960;6.830;2023-05-10T13:27:27;2.38;;;1.55;;
14732;SDS011;7457;50.960;6.830;2023-05-10T13:29:53;1.67;;;1.33;;
14732;SDS011;7457;50.960;6.830;2023-05-10T13:32:20;2.13;;;1.83;;
14732;SDS011;7457;50.960;6.830;2023-05-10T13:34:45;2.67;;;1.40;;
14732;SDS011;7457;50.960;6.830;2023-05-10T13:37:11;1.73;;;1.60;;
14732;SDS011;7457;50.960;6.830;2023-05-10T13:39:37;1.50;;;1.40;;
14732;SDS011;7457;50.960;6.830;2023-05-10T13:42:03;3.08;;;1.63;;
14732;SDS011;7457;50.960;6.830;2023-05-10T13:44:30;3.58;;;1.70;;
14732;SDS011;7457;50.960;6.830;2023-05-10T13:46:56;1.85;;;1.23;;
14732;SDS011;7457;50.960;6.830;2023-05-10T13:49:22;3.42;;;1.60;;
14732;SDS011;7457;50.960;6.830;2023-05-10T13:51:47;1.60;;;1.50;;
14732;SDS011;7457;50.960;6.830;2023-05-10T13:54:13;1.55;;;1.45;;
14732;SDS011;7457;50.960;6.830;2023-05-10T13:56:39;1.38;;;1.27;;
14732;SDS011;7457;50.960;6.830;2023-05-10T13:59:06;1.88;;;1.75;;
14732;SDS011;7457;50.960;6.830;2023-05-10T14:01:32;1.70;;;1.60;;
14732;SDS011;7457;50.960;6.830;2023-05-10T14:03:58;3.08;;;1.63;;
14732;SDS011;7457;50.960;6.830;2023-05-10T14:06:24;2.47;;;1.63;;
14732;SDS011;7457;50.960;6.830;2023-05-10T14:08:51;1.70;;;1.52;;
14732;SDS011;7457;50.960;6.830;2023-05-10T14:11:17;2.85;;;1.60;;
14732;SDS011;7457;50.960;6.830;2023-05-10T14:13:43;1.80;;;1.70;;
14732;SDS011;7457;50.960;6.830;2023-05-10T14:16:09;8.15;;;1.60;;
14732;SDS011;7457;50.960;6.830;2023-05-10T14:18:34;2.60;;;1.60;;
14732;SDS011;7457;50.960;6.830;2023-05-10T14:21:01;3.08;;;2.40;;
14732;SDS011;7457;50.960;6.830;2023-05-10T14:23:28;2.03;;;1.23;;
14732;SDS011;7457;50.960;6.830;2023-05-10T14:25:54;2.20;;;1.90;;
14732;SDS011;7457;50.960;6.830;2023-05-10T14:28:20;5.03;;;1.95;;
14732;SDS011;7457;50.960;6.830;2023-05-10T14:30:46;3.10;;;1.63;;
14732;SDS011;7457;50.960;6.830;2023-05-10T14:33:12;2.90;;;1.70;;
14732;SDS011;7457;50.960;6.830;2023-05-10T14:35:38;3.88;;;2.53;;
14732;SDS011;7457;50.960;6.830;2023-05-10T14:38:03;3.47;;;2.65;;
14732;SDS011;7457;50.960;6.830;2023-05-10T14:40:29;3.67;;;2.30;;
14732;SDS011;7457;50.960;6.830;2023-05-10T14:42:55;2.63;;;2.22;;
14732;SDS011;7457;50.960;6.830;2023-05-10T14:45:21;5.35;;;2.72;;
14732;SDS011;7457;50.960;6.830;2023-05-10T14:47:48;2.65;;;2.45;;
14732;SDS011;7457;50.960;6.830;2023-05-10T14:50:14;6.60;;;2.65;;
14732;SDS011;7457;50.960;6.830;2023-05-10T14:52:40;7.00;;;2.15;;
14732;SDS011;7457;50.960;6.830;2023-05-10T14:55:05;5.00;;;2.50;;
14732;SDS011;7457;50.960;6.830;2023-05-10T14:57:31;3.90;;;2.85;;
14732;SDS011;7457;50.960;6.830;2023-05-10T14:59:58;3.03;;;2.42;;
14732;SDS011;7457;50.960;6.830;2023-05-10T15:02:23;2.78;;;2.10;;
14732;SDS011;7457;50.960;6.830;2023-05-10T15:04:49;2.20;;;2.00;;
14732;SDS011;7457;50.960;6.830;2023-05-10T15:07:15;2.08;;;1.80;;
14732;SDS011;7457;50.960;6.830;2023-05-10T15:09:43;3.88;;;2.10;;
14732;SDS011;7457;50.960;6.830;2023-05-10T15:12:09;2.28;;;2.08;;
14732;SDS011;7457;50.960;6.830;2023-05-10T15:14:35;2.42;;;1.98;;
14732;SDS011;7457;50.960;6.830;2023-05-10T15:17:01;2.45;;;1.90;;
14732;SDS011;7457;50.960;6.830;2023-05-10T15:19:27;1.98;;;1.88;;
14732;SDS011;7457;50.960;6.830;2023-05-10T15:21:54;2.67;;;1.83;;